Terminal Aerodrome Forecast
Issued by NWS Paducah, KY

Home | Current Version | Previous Version | Text Only | Print | Product List | Glossary On
Versions: 1 2 3 4 5 6 7 8 9 10 11 12 13 14 15 16 17 18 19
014
FTUS43 KPAH 280135 AAA
TAFEVV
TAF AMD
KEVV 280135Z 2802/2824 11005KT 5SM -SHRA BR OVC050
      TEMPO 2802/2803 3SM BR BKN005
     FM280300 23007KT P6SM SCT025 BKN130
     FM280500 24005KT P6SM SCT250
     FM281400 26011KT P6SM SCT250=

USA.gov is the U.S. government's official web portal to all federal, state and local government web resources and services.